Time;durP1;ratioP1;P1;durP2;ratioP2;P2;SDS_P1;SDS_P2;PMS_P1;PMS_P2;Temp;Humidity;BMP_temperature;BMP_pressure;BME280_temperature;BME280_humidity;BME280_pressure;Samples;Min_cycle;Max_cycle;Signal;HPM_P1;HPM_P2
2023/07/05 00:01:01;;;;;;;7.80;5.22;;;;;;;;;;5092057;28;20091;-64
2023/07/05 00:03:26;;;;;;;9.32;4.93;;;;;;;;;;5092255;28;20027;-65
2023/07/05 00:05:51;;;;;;;7.32;4.75;;;;;;;;;;5091803;28;20643;-64
2023/07/05 00:08:17;;;;;;;8.27;5.55;;;;;;;;;;5086001;28;20028;-65
2023/07/05 00:10:42;;;;;;;6.22;4.90;;;;;;;;;;5091032;28;20019;-66
2023/07/05 00:13:07;;;;;;;7.63;5.10;;;;;;;;;;5091593;28;20670;-65
2023/07/05 00:15:33;;;;;;;6.90;5.22;;;;;;;;;;5091987;28;20270;-65
2023/07/05 00:17:58;;;;;;;8.75;5.20;;;;;;;;;;5091990;28;20510;-66
2023/07/05 00:20:23;;;;;;;9.32;5.15;;;;;;;;;;5091176;28;20020;-66
2023/07/05 00:22:49;;;;;;;6.68;4.65;;;;;;;;;;5091854;28;20024;-66
2023/07/05 00:25:14;;;;;;;13.15;5.32;;;;;;;;;;5089454;28;20059;-66
2023/07/05 00:27:39;;;;;;;6.53;4.63;;;;;;;;;;5091364;28;20089;-66
2023/07/05 00:30:05;;;;;;;8.77;4.87;;;;;;;;;;5091315;28;20026;-66
2023/07/05 00:32:30;;;;;;;11.30;5.00;;;;;;;;;;5091214;28;20262;-65
2023/07/05 00:34:56;;;;;;;6.25;4.80;;;;;;;;;;5079047;28;20024;-65
2023/07/05 00:37:21;;;;;;;6.33;4.07;;;;;;;;;;5076686;28;20028;-65
2023/07/05 00:39:46;;;;;;;6.10;3.93;;;;;;;;;;5091480;28;20266;-65
2023/07/05 00:42:11;;;;;;;5.97;4.10;;;;;;;;;;5091256;28;20369;-65
2023/07/05 00:44:37;;;;;;;6.68;4.95;;;;;;;;;;5092214;28;20359;-66
2023/07/05 00:47:17;;;;;;;7.63;4.30;;;;;;;;;;5091628;28;20024;-66
2023/07/05 00:49:43;;;;;;;4.82;3.58;;;;;;;;;;5089691;28;20442;-66
2023/07/05 00:52:11;;;;;;;7.28;4.13;;;;;;;;;;5092257;28;20108;-65
2023/07/05 00:54:48;;;;;;;4.38;3.85;;;;;;;;;;5090198;28;20021;-64
2023/07/05 00:57:17;;;;;;;5.75;4.22;;;;;;;;;;5091942;28;20032;-65
2023/07/05 01:00:03;;;;;;;6.95;4.45;;;;;;;;;;5078637;28;20021;-65
2023/07/05 01:02:28;;;;;;;4.68;3.10;;;;;;;;;;5090980;28;20046;-65
2023/07/05 01:04:54;;;;;;;7.60;4.03;;;;;;;;;;5092004;28;20027;-65
2023/07/05 01:07:19;;;;;;;11.07;3.92;;;;;;;;;;5091278;28;20020;-66
2023/07/05 01:09:47;;;;;;;4.97;3.43;;;;;;;;;;5091232;28;20497;-66
2023/07/05 01:12:13;;;;;;;5.60;3.20;;;;;;;;;;5086382;28;20757;-66
2023/07/05 01:14:44;;;;;;;4.28;2.80;;;;;;;;;;5090464;28;20031;-66
2023/07/05 01:17:25;;;;;;;5.05;3.00;;;;;;;;;;5072822;28;20063;-66
2023/07/05 01:19:57;;;;;;;4.13;2.97;;;;;;;;;;5084881;28;20486;-68
2023/07/05 01:22:39;;;;;;;6.40;3.33;;;;;;;;;;5079821;28;20093;-67
2023/07/05 01:25:11;;;;;;;7.70;2.85;;;;;;;;;;5090552;28;20028;-67
2023/07/05 01:27:36;;;;;;;5.93;3.13;;;;;;;;;;5091519;28;20024;-65
2023/07/05 01:30:04;;;;;;;5.28;2.97;;;;;;;;;;5091130;28;20036;-67
2023/07/05 01:32:45;;;;;;;4.80;2.70;;;;;;;;;;5086808;28;20437;-68
2023/07/05 01:35:16;;;;;;;4.93;2.63;;;;;;;;;;5076603;28;20497;-68
2023/07/05 01:37:43;;;;;;;5.47;2.17;;;;;;;;;;5083842;28;20058;-68
2023/07/05 01:40:11;;;;;;;3.80;1.65;;;;;;;;;;5091308;28;20020;-68
2023/07/05 01:42:37;;;;;;;4.80;2.05;;;;;;;;;;5090646;28;20108;-68
2023/07/05 01:45:02;;;;;;;2.45;1.45;;;;;;;;;;5091549;28;20062;-68
2023/07/05 01:47:32;;;;;;;3.13;1.83;;;;;;;;;;5091047;28;20058;-68
2023/07/05 01:50:03;;;;;;;2.85;1.65;;;;;;;;;;5091324;28;20138;-68
2023/07/05 01:52:34;;;;;;;3.15;1.58;;;;;;;;;;5089734;28;20028;-69
2023/07/05 01:55:31;;;;;;;11.27;1.40;;;;;;;;;;5090198;28;20073;-68
2023/07/05 01:58:03;;;;;;;2.50;1.23;;;;;;;;;;5042827;28;20065;-68
2023/07/05 02:00:30;;;;;;;2.08;1.10;;;;;;;;;;5090779;28;20056;-69
2023/07/05 02:03:01;;;;;;;2.40;1.15;;;;;;;;;;5089307;28;20421;-69
2023/07/05 02:05:28;;;;;;;2.78;1.02;;;;;;;;;;5079153;28;20390;-69
2023/07/05 02:07:54;;;;;;;1.70;0.82;;;;;;;;;;5090531;28;20019;-68
2023/07/05 02:10:19;;;;;;;3.17;1.20;;;;;;;;;;5090405;28;20024;-68
2023/07/05 02:12:44;;;;;;;2.72;1.45;;;;;;;;;;5092520;28;20032;-68
2023/07/05 02:15:10;;;;;;;2.75;1.30;;;;;;;;;;5093712;28;20025;-70
2023/07/05 02:17:35;;;;;;;6.75;1.90;;;;;;;;;;5094465;28;20558;-68
2023/07/05 02:20:00;;;;;;;3.30;1.25;;;;;;;;;;5093032;28;20028;-65
2023/07/05 02:22:25;;;;;;;4.30;1.95;;;;;;;;;;5093406;28;20082;-67
2023/07/05 02:24:51;;;;;;;3.63;1.70;;;;;;;;;;5092745;28;20020;-67
2023/07/05 02:27:17;;;;;;;3.47;1.80;;;;;;;;;;5076697;28;20375;-68
2023/07/05 02:29:42;;;;;;;4.28;1.75;;;;;;;;;;5093725;28;20428;-68
2023/07/05 02:32:07;;;;;;;5.68;1.92;;;;;;;;;;5094716;28;20039;-67
2023/07/05 02:34:36;;;;;;;3.20;1.52;;;;;;;;;;5093871;28;20039;-67
2023/07/05 02:37:01;;;;;;;3.80;2.15;;;;;;;;;;5094012;28;20032;-66
2023/07/05 02:39:27;;;;;;;7.57;2.15;;;;;;;;;;5093082;28;20024;-65
2023/07/05 02:41:52;;;;;;;3.42;1.70;;;;;;;;;;5093073;28;20094;-68
2023/07/05 02:44:17;;;;;;;4.57;1.80;;;;;;;;;;5092880;28;20024;-66
2023/07/05 02:46:42;;;;;;;5.13;2.10;;;;;;;;;;5093628;28;20274;-65
2023/07/05 02:49:07;;;;;;;4.60;1.95;;;;;;;;;;5093447;28;20293;-64
2023/07/05 02:51:33;;;;;;;6.85;2.17;;;;;;;;;;5092608;28;20081;-64
2023/07/05 02:53:58;;;;;;;4.18;2.13;;;;;;;;;;5088294;28;20027;-65
2023/07/05 02:56:24;;;;;;;4.25;2.13;;;;;;;;;;5093282;28;20081;-65
2023/07/05 02:58:49;;;;;;;5.53;2.72;;;;;;;;;;5087825;28;20072;-65
2023/07/05 03:01:15;;;;;;;4.28;2.47;;;;;;;;;;5085737;28;20324;-65
2023/07/05 03:03:40;;;;;;;6.18;2.20;;;;;;;;;;5092809;28;20020;-65
2023/07/05 03:06:05;;;;;;;5.88;2.30;;;;;;;;;;5092928;28;20032;-66
2023/07/05 03:08:31;;;;;;;4.53;2.38;;;;;;;;;;5093496;28;20027;-66
2023/07/05 03:10:56;;;;;;;6.10;2.60;;;;;;;;;;5092930;28;20097;-66
2023/07/05 03:13:22;;;;;;;5.10;2.50;;;;;;;;;;5092821;28;20423;-66
2023/07/05 03:15:48;;;;;;;7.07;2.70;;;;;;;;;;5093579;28;20027;-65
2023/07/05 03:18:13;;;;;;;5.78;2.60;;;;;;;;;;5093138;28;20078;-65
2023/07/05 03:20:38;;;;;;;5.40;2.40;;;;;;;;;;5093204;28;20028;-65
2023/07/05 03:23:04;;;;;;;3.63;2.13;;;;;;;;;;5091695;28;20310;-65
2023/07/05 03:25:29;;;;;;;6.07;2.78;;;;;;;;;;5092270;28;20024;-65
2023/07/05 03:27:54;;;;;;;4.85;2.78;;;;;;;;;;5092984;28;20475;-66
2023/07/05 03:30:20;;;;;;;4.10;2.60;;;;;;;;;;5091006;28;20027;-65
2023/07/05 03:32:45;;;;;;;6.05;2.95;;;;;;;;;;5089108;28;20035;-64
2023/07/05 03:35:11;;;;;;;5.27;2.67;;;;;;;;;;5092570;28;20391;-65
2023/07/05 03:37:36;;;;;;;4.05;2.60;;;;;;;;;;5093273;28;20648;-66
2023/07/05 03:40:01;;;;;;;6.72;3.15;;;;;;;;;;5093098;28;20052;-65
2023/07/05 03:42:26;;;;;;;3.72;2.53;;;;;;;;;;5093147;28;20024;-64
2023/07/05 03:44:52;;;;;;;7.75;3.20;;;;;;;;;;5091881;28;20031;-64
2023/07/05 03:47:17;;;;;;;5.45;2.88;;;;;;;;;;5092604;28;20098;-64
2023/07/05 03:49:42;;;;;;;8.63;3.08;;;;;;;;;;5092059;28;20027;-65
2023/07/05 03:52:08;;;;;;;6.90;3.30;;;;;;;;;;5091909;28;20382;-65
2023/07/05 03:54:33;;;;;;;7.70;3.20;;;;;;;;;;5092422;28;20028;-64
2023/07/05 03:56:58;;;;;;;4.55;3.10;;;;;;;;;;5091680;28;20282;-63
2023/07/05 03:59:23;;;;;;;10.40;2.93;;;;;;;;;;5089259;28;20021;-63
2023/07/05 04:01:49;;;;;;;6.97;3.75;;;;;;;;;;5092567;28;20274;-64
2023/07/05 04:04:14;;;;;;;6.20;3.53;;;;;;;;;;5066931;28;20919;-64
2023/07/05 04:06:39;;;;;;;6.57;3.15;;;;;;;;;;5071872;28;20301;-64
2023/07/05 04:09:04;;;;;;;5.90;3.72;;;;;;;;;;5091402;28;20085;-64
2023/07/05 04:11:30;;;;;;;4.47;2.88;;;;;;;;;;5089279;28;20345;-63
2023/07/05 04:13:55;;;;;;;5.97;3.40;;;;;;;;;;5091553;28;20098;-64
2023/07/05 04:16:22;;;;;;;8.88;3.75;;;;;;;;;;5092436;28;20286;-63
2023/07/05 04:18:49;;;;;;;5.35;3.40;;;;;;;;;;5092060;28;20012;-64
2023/07/05 04:21:15;;;;;;;6.28;2.90;;;;;;;;;;5085035;28;20483;-63
2023/07/05 04:23:40;;;;;;;8.95;3.50;;;;;;;;;;5092130;28;20104;-63
2023/07/05 04:26:10;;;;;;;6.40;3.17;;;;;;;;;;5091722;28;20047;-64
2023/07/05 04:28:36;;;;;;;7.60;3.33;;;;;;;;;;5091711;28;20095;-64
2023/07/05 04:31:01;;;;;;;6.20;3.08;;;;;;;;;;5085860;28;20425;-64
2023/07/05 04:33:27;;;;;;;5.13;3.30;;;;;;;;;;5086500;28;20081;-63
2023/07/05 04:35:54;;;;;;;8.43;3.63;;;;;;;;;;5084150;28;20447;-63
2023/07/05 04:38:19;;;;;;;11.40;3.85;;;;;;;;;;5085302;28;20032;-64
2023/07/05 04:40:44;;;;;;;6.30;3.77;;;;;;;;;;5091120;28;20107;-65
2023/07/05 04:43:09;;;;;;;11.02;4.18;;;;;;;;;;5092180;28;20257;-66
2023/07/05 04:45:35;;;;;;;5.93;3.47;;;;;;;;;;5090869;28;20008;-65
2023/07/05 04:48:00;;;;;;;7.35;3.58;;;;;;;;;;5091330;28;20027;-64
2023/07/05 04:50:25;;;;;;;5.85;3.65;;;;;;;;;;5091481;28;20019;-65
2023/07/05 04:52:51;;;;;;;8.75;2.97;;;;;;;;;;5091202;28;20027;-65
2023/07/05 04:55:16;;;;;;;6.68;3.67;;;;;;;;;;5089200;28;20030;-65
2023/07/05 04:57:42;;;;;;;6.47;3.63;;;;;;;;;;5091279;28;20482;-67
2023/07/05 05:00:08;;;;;;;8.32;2.92;;;;;;;;;;5091329;28;20124;-65
2023/07/05 05:02:34;;;;;;;6.72;3.30;;;;;;;;;;5091440;28;20494;-64
2023/07/05 05:04:59;;;;;;;8.57;3.10;;;;;;;;;;5090972;28;20038;-66
2023/07/05 05:07:25;;;;;;;5.60;3.00;;;;;;;;;;5091725;28;20433;-63
2023/07/05 05:09:50;;;;;;;6.97;3.20;;;;;;;;;;5073531;28;20138;-64
2023/07/05 05:12:15;;;;;;;6.82;3.67;;;;;;;;;;5084612;28;20066;-64
2023/07/05 05:14:40;;;;;;;6.50;3.03;;;;;;;;;;5091370;28;20036;-66
2023/07/05 05:17:06;;;;;;;4.88;2.45;;;;;;;;;;5091497;28;20328;-65
2023/07/05 05:19:31;;;;;;;9.52;2.35;;;;;;;;;;5091280;28;20016;-66
2023/07/05 05:21:56;;;;;;;6.05;2.33;;;;;;;;;;5091863;28;20054;-64
2023/07/05 05:24:22;;;;;;;9.50;2.77;;;;;;;;;;5091132;28;20040;-66
2023/07/05 05:26:47;;;;;;;11.70;2.90;;;;;;;;;;5091255;28;20278;-67
2023/07/05 05:29:12;;;;;;;5.32;2.85;;;;;;;;;;5090571;28;20390;-67
2023/07/05 05:31:38;;;;;;;6.78;2.70;;;;;;;;;;5090931;28;20028;-65
2023/07/05 05:34:03;;;;;;;4.78;2.10;;;;;;;;;;5090434;28;20478;-66
2023/07/05 05:36:28;;;;;;;4.97;2.38;;;;;;;;;;5091618;28;20212;-68
2023/07/05 05:38:53;;;;;;;4.00;2.30;;;;;;;;;;5090540;28;20031;-64
2023/07/05 05:41:19;;;;;;;5.05;3.03;;;;;;;;;;5091300;28;20285;-68
2023/07/05 05:43:45;;;;;;;7.68;2.60;;;;;;;;;;5090725;28;20544;-67
2023/07/05 05:46:10;;;;;;;4.88;2.33;;;;;;;;;;5089870;28;20035;-66
2023/07/05 05:48:36;;;;;;;8.45;2.75;;;;;;;;;;5094143;28;20099;-67
2023/07/05 05:51:01;;;;;;;9.13;2.95;;;;;;;;;;5094652;28;20028;-67
2023/07/05 05:53:26;;;;;;;3.77;2.00;;;;;;;;;;5092263;28;20032;-67
2023/07/05 05:55:54;;;;;;;4.90;2.03;;;;;;;;;;5094416;28;20297;-67
2023/07/05 05:58:19;;;;;;;5.78;2.63;;;;;;;;;;5093935;28;20028;-67
2023/07/05 06:00:46;;;;;;;12.67;2.93;;;;;;;;;;5093551;28;21217;-68
2023/07/05 06:03:11;;;;;;;7.85;3.08;;;;;;;;;;5095177;28;20301;-67
2023/07/05 06:05:37;;;;;;;6.03;2.57;;;;;;;;;;5094723;28;20419;-67
2023/07/05 06:08:02;;;;;;;5.05;2.30;;;;;;;;;;5058679;28;20359;-68
2023/07/05 06:10:27;;;;;;;5.97;2.35;;;;;;;;;;5047053;28;20031;-68
2023/07/05 06:12:53;;;;;;;7.20;3.08;;;;;;;;;;5051424;28;20024;-67
2023/07/05 06:15:18;;;;;;;8.15;3.40;;;;;;;;;;5093711;28;20020;-68
2023/07/05 06:17:43;;;;;;;5.70;2.45;;;;;;;;;;5093961;28;20435;-67
2023/07/05 06:20:10;;;;;;;6.40;2.80;;;;;;;;;;5093186;28;20024;-67
2023/07/05 06:22:35;;;;;;;5.30;2.10;;;;;;;;;;5094402;28;20016;-68
2023/07/05 06:25:01;;;;;;;5.47;2.25;;;;;;;;;;5093622;28;20402;-68
2023/07/05 06:27:26;;;;;;;6.35;2.13;;;;;;;;;;5092909;28;20032;-68
2023/07/05 06:29:52;;;;;;;8.77;2.50;;;;;;;;;;5094215;28;20024;-68
2023/07/05 06:32:17;;;;;;;4.17;1.80;;;;;;;;;;5093590;28;20040;-67
2023/07/05 06:34:42;;;;;;;11.38;2.10;;;;;;;;;;5093835;28;20681;-68
2023/07/05 06:37:07;;;;;;;5.03;2.38;;;;;;;;;;5093905;28;20034;-67
2023/07/05 06:39:33;;;;;;;7.22;2.25;;;;;;;;;;5090509;28;20032;-67
2023/07/05 06:41:58;;;;;;;8.10;2.90;;;;;;;;;;5094088;28;20012;-68
2023/07/05 06:44:23;;;;;;;5.03;2.28;;;;;;;;;;5093874;28;20814;-65
2023/07/05 06:46:49;;;;;;;4.32;1.90;;;;;;;;;;5093804;28;20038;-66
2023/07/05 06:49:14;;;;;;;6.78;2.00;;;;;;;;;;5092937;28;20023;-66
2023/07/05 06:51:40;;;;;;;5.95;2.13;;;;;;;;;;5093292;28;20027;-66
2023/07/05 06:54:05;;;;;;;6.28;2.10;;;;;;;;;;5093068;28;20032;-66
2023/07/05 06:56:31;;;;;;;5.47;1.83;;;;;;;;;;5092945;28;20493;-65
2023/07/05 06:58:56;;;;;;;5.30;1.88;;;;;;;;;;5092123;28;20415;-66
2023/07/05 07:01:21;;;;;;;4.45;1.65;;;;;;;;;;5091943;28;20382;-66
2023/07/05 07:03:46;;;;;;;9.30;2.15;;;;;;;;;;5093411;28;20035;-66
2023/07/05 07:06:12;;;;;;;7.20;1.75;;;;;;;;;;5093084;28;20064;-67
2023/07/05 07:08:38;;;;;;;4.25;1.52;;;;;;;;;;5091807;28;20466;-67
2023/07/05 07:11:04;;;;;;;8.02;2.42;;;;;;;;;;5093116;28;20031;-67
2023/07/05 07:13:32;;;;;;;7.03;2.30;;;;;;;;;;5092512;28;20043;-66
2023/07/05 07:16:08;;;;;;;5.20;2.00;;;;;;;;;;5092517;28;20090;-66
2023/07/05 07:18:36;;;;;;;7.22;1.85;;;;;;;;;;5093560;28;20114;-66
2023/07/05 07:21:01;;;;;;;7.55;1.63;;;;;;;;;;5092327;28;20449;-66
2023/07/05 07:23:27;;;;;;;13.60;2.35;;;;;;;;;;5093247;28;20032;-66
2023/07/05 07:25:59;;;;;;;3.70;1.52;;;;;;;;;;5092385;28;20522;-67
2023/07/05 07:28:25;;;;;;;6.03;1.85;;;;;;;;;;5091984;28;20061;-66
2023/07/05 07:30:50;;;;;;;4.22;2.00;;;;;;;;;;5091736;28;20055;-67
2023/07/05 07:33:15;;;;;;;3.30;1.43;;;;;;;;;;5091795;28;20387;-66
2023/07/05 07:35:40;;;;;;;4.97;1.67;;;;;;;;;;5091485;28;20308;-67
2023/07/05 07:38:05;;;;;;;6.17;2.13;;;;;;;;;;5091952;28;20309;-67
2023/07/05 07:40:35;;;;;;;3.13;1.33;;;;;;;;;;5087187;28;20373;-68
2023/07/05 07:43:00;;;;;;;6.57;1.83;;;;;;;;;;5091914;28;20024;-68
2023/07/05 07:45:27;;;;;;;6.53;1.53;;;;;;;;;;5092392;28;20102;-66
2023/07/05 07:47:52;;;;;;;11.50;2.15;;;;;;;;;;5092315;28;20262;-67
2023/07/05 07:50:17;;;;;;;4.50;1.43;;;;;;;;;;5091875;28;20110;-66
2023/07/05 07:52:42;;;;;;;13.70;2.67;;;;;;;;;;5092373;28;20297;-65
2023/07/05 07:55:09;;;;;;;7.80;2.23;;;;;;;;;;5092408;28;20274;-67
2023/07/05 07:57:34;;;;;;;8.20;1.90;;;;;;;;;;5092968;28;20335;-67
2023/07/05 08:00:00;;;;;;;7.03;1.90;;;;;;;;;;5092833;28;20024;-68
2023/07/05 08:02:25;;;;;;;5.43;1.77;;;;;;;;;;5092852;28;20028;-66
2023/07/05 08:04:50;;;;;;;6.25;1.60;;;;;;;;;;5092388;28;20020;-66
2023/07/05 08:07:16;;;;;;;5.55;2.15;;;;;;;;;;5082648;28;20397;-66
2023/07/05 08:09:41;;;;;;;12.32;2.08;;;;;;;;;;5089346;28;20024;-66
2023/07/05 08:12:08;;;;;;;9.50;2.40;;;;;;;;;;5090988;28;20043;-64
2023/07/05 08:14:33;;;;;;;10.98;1.58;;;;;;;;;;5073221;28;20024;-67
2023/07/05 08:16:58;;;;;;;5.88;1.77;;;;;;;;;;5091895;28;20070;-68
2023/07/05 08:19:24;;;;;;;8.48;2.17;;;;;;;;;;5092164;28;20035;-67
2023/07/05 08:21:50;;;;;;;11.15;2.20;;;;;;;;;;5092228;28;20027;-66
2023/07/05 08:24:16;;;;;;;5.68;2.10;;;;;;;;;;5091680;28;20339;-66
2023/07/05 08:26:41;;;;;;;6.40;1.90;;;;;;;;;;5073773;28;20020;-65
2023/07/05 08:29:08;;;;;;;4.68;1.73;;;;;;;;;;5091341;28;20032;-65
2023/07/05 08:31:33;;;;;;;14.02;2.30;;;;;;;;;;5092306;28;20370;-66
2023/07/05 08:33:58;;;;;;;12.45;2.55;;;;;;;;;;5091693;28;20028;-65
2023/07/05 08:36:28;;;;;;;11.27;2.37;;;;;;;;;;5091894;28;20032;-67
2023/07/05 08:38:54;;;;;;;5.88;2.47;;;;;;;;;;5091284;28;20269;-67
2023/07/05 08:41:32;;;;;;;5.95;2.05;;;;;;;;;;5088060;28;20035;-67
2023/07/05 08:44:14;;;;;;;4.82;2.10;;;;;;;;;;5091491;28;20024;-67
2023/07/05 08:46:40;;;;;;;7.78;2.40;;;;;;;;;;5091877;28;20024;-67
2023/07/05 08:49:08;;;;;;;5.93;1.98;;;;;;;;;;5091102;28;20097;-67
2023/07/05 08:51:33;;;;;;;8.38;2.13;;;;;;;;;;5091871;28;20336;-68
2023/07/05 08:54:00;;;;;;;7.05;2.20;;;;;;;;;;5091173;28;20031;-69
2023/07/05 08:56:32;;;;;;;4.28;1.80;;;;;;;;;;5091336;28;20111;-68
2023/07/05 08:59:02;;;;;;;9.48;1.92;;;;;;;;;;5090686;28;20382;-67
2023/07/05 09:01:32;;;;;;;12.15;2.67;;;;;;;;;;5090845;28;20068;-66
2023/07/05 09:03:58;;;;;;;8.38;2.58;;;;;;;;;;5090663;28;20027;-68
2023/07/05 09:06:23;;;;;;;5.68;1.88;;;;;;;;;;5085874;28;20392;-68
2023/07/05 09:09:07;;;;;;;7.60;2.22;;;;;;;;;;5088733;28;20067;-67
2023/07/05 09:11:42;;;;;;;9.00;2.40;;;;;;;;;;5091958;28;20016;-67
2023/07/05 09:14:17;;;;;;;8.68;2.35;;;;;;;;;;5086787;28;20502;-67
2023/07/05 09:16:43;;;;;;;5.57;2.08;;;;;;;;;;5090771;28;20086;-67
2023/07/05 09:19:20;;;;;;;13.15;2.70;;;;;;;;;;5085208;28;20032;-68
2023/07/05 09:21:47;;;;;;;12.88;2.40;;;;;;;;;;5087120;28;20066;-68
2023/07/05 09:24:16;;;;;;;8.55;2.13;;;;;;;;;;5087795;28;20457;-68
2023/07/05 09:26:45;;;;;;;9.10;2.60;;;;;;;;;;5090408;28;20043;-67
2023/07/05 09:29:19;;;;;;;6.68;2.22;;;;;;;;;;5091358;28;20090;-67
2023/07/05 09:31:46;;;;;;;13.68;2.60;;;;;;;;;;5090811;28;20024;-67
2023/07/05 09:34:11;;;;;;;6.43;1.90;;;;;;;;;;5071303;28;20032;-66
2023/07/05 09:36:37;;;;;;;11.50;2.17;;;;;;;;;;5082477;28;20535;-67
2023/07/05 09:39:11;;;;;;;4.88;2.08;;;;;;;;;;5090422;28;20274;-67
2023/07/05 09:41:41;;;;;;;8.98;2.25;;;;;;;;;;5085695;28;20017;-67
2023/07/05 09:44:06;;;;;;;6.00;1.90;;;;;;;;;;5085026;28;20051;-67
2023/07/05 09:46:33;;;;;;;11.80;2.22;;;;;;;;;;5090388;28;20055;-67
2023/07/05 09:48:59;;;;;;;10.38;2.10;;;;;;;;;;5089933;28;20031;-67
2023/07/05 09:51:25;;;;;;;10.38;2.00;;;;;;;;;;5090428;28;20024;-66
2023/07/05 09:54:01;;;;;;;6.13;1.58;;;;;;;;;;5090215;28;20027;-67
2023/07/05 09:56:27;;;;;;;7.80;1.63;;;;;;;;;;5088919;28;20016;-66
2023/07/05 09:59:05;;;;;;;7.07;2.20;;;;;;;;;;5090674;28;20517;-67
2023/07/05 10:01:30;;;;;;;6.63;2.05;;;;;;;;;;5090764;28;20028;-68
2023/07/05 10:03:57;;;;;;;10.00;1.70;;;;;;;;;;5090410;28;20065;-68
2023/07/05 10:06:23;;;;;;;4.38;1.90;;;;;;;;;;5087830;28;20020;-67
2023/07/05 10:08:50;;;;;;;3.78;1.75;;;;;;;;;;5090464;28;20047;-65
2023/07/05 10:11:23;;;;;;;7.05;2.05;;;;;;;;;;5090452;28;20040;-68
2023/07/05 10:14:06;;;;;;;18.38;3.22;;;;;;;;;;5090202;28;20505;-67
2023/07/05 10:16:45;;;;;;;6.07;2.10;;;;;;;;;;5078066;28;20020;-65
2023/07/05 10:19:19;;;;;;;10.18;2.47;;;;;;;;;;5089849;28;20032;-67
2023/07/05 10:21:46;;;;;;;5.47;1.50;;;;;;;;;;5090324;28;20039;-67
2023/07/05 10:24:13;;;;;;;16.33;2.63;;;;;;;;;;5090318;28;20036;-67
2023/07/05 10:26:41;;;;;;;7.10;1.80;;;;;;;;;;5090019;28;20016;-68
2023/07/05 10:29:10;;;;;;;3.65;1.60;;;;;;;;;;5090246;28;20016;-69
2023/07/05 10:31:35;;;;;;;9.63;2.28;;;;;;;;;;5089937;28;20056;-67
2023/07/05 10:34:17;;;;;;;11.77;2.80;;;;;;;;;;5092549;28;20453;-66
2023/07/05 10:36:46;;;;;;;7.55;2.70;;;;;;;;;;5087790;28;20459;-68
2023/07/05 10:39:11;;;;;;;6.32;2.45;;;;;;;;;;5092944;28;20016;-67
2023/07/05 10:41:37;;;;;;;9.45;2.65;;;;;;;;;;5092857;28;20020;-67
2023/07/05 10:44:06;;;;;;;14.05;3.13;;;;;;;;;;5094135;28;20036;-67
2023/07/05 10:46:34;;;;;;;4.25;2.38;;;;;;;;;;5093174;28;20081;-67
2023/07/05 10:49:01;;;;;;;8.52;2.67;;;;;;;;;;5082266;28;20021;-66
2023/07/05 10:51:29;;;;;;;7.75;2.03;;;;;;;;;;5092324;28;20095;-68
2023/07/05 10:54:00;;;;;;;8.48;2.83;;;;;;;;;;5092377;28;20052;-66
2023/07/05 10:56:29;;;;;;;6.80;2.38;;;;;;;;;;5092906;28;20098;-67
2023/07/05 10:59:01;;;;;;;13.07;3.00;;;;;;;;;;5093202;28;20514;-67
2023/07/05 11:01:38;;;;;;;7.15;2.53;;;;;;;;;;5093253;28;20031;-70
2023/07/05 11:04:11;;;;;;;7.72;2.95;;;;;;;;;;5093257;28;20530;-66
2023/07/05 11:06:37;;;;;;;14.77;3.30;;;;;;;;;;5092815;28;20028;-68
2023/07/05 11:09:03;;;;;;;10.45;2.92;;;;;;;;;;5092291;28;20032;-65
2023/07/05 11:11:30;;;;;;;18.65;2.92;;;;;;;;;;5092701;28;20085;-66
2023/07/05 11:14:00;;;;;;;7.13;2.38;;;;;;;;;;5092521;28;20498;-67
2023/07/05 11:16:26;;;;;;;9.73;2.78;;;;;;;;;;5091077;28;20042;-66
2023/07/05 11:19:11;;;;;;;12.95;3.13;;;;;;;;;;5091906;28;20024;-66
2023/07/05 11:21:38;;;;;;;9.00;3.15;;;;;;;;;;5090576;28;20032;-68
2023/07/05 11:24:05;;;;;;;9.50;3.22;;;;;;;;;;5092709;28;20049;-68
2023/07/05 11:26:31;;;;;;;13.07;3.10;;;;;;;;;;5093252;28;20450;-66
2023/07/05 11:28:56;;;;;;;9.82;2.90;;;;;;;;;;5091877;28;20086;-66
2023/07/05 11:31:27;;;;;;;14.45;2.28;;;;;;;;;;5089134;28;20016;-64
2023/07/05 11:34:11;;;;;;;15.65;3.25;;;;;;;;;;5088904;28;20050;-66
2023/07/05 11:36:38;;;;;;;10.10;3.00;;;;;;;;;;5080778;28;20028;-67
2023/07/05 11:39:04;;;;;;;12.65;3.88;;;;;;;;;;5092452;28;20127;-68
2023/07/05 11:41:32;;;;;;;12.40;4.10;;;;;;;;;;5092353;28;20534;-68
2023/07/05 11:44:04;;;;;;;7.25;3.10;;;;;;;;;;5083111;28;20039;-71
2023/07/05 11:46:37;;;;;;;15.70;3.90;;;;;;;;;;5091749;28;20090;-71
2023/07/05 11:49:15;;;;;;;14.20;3.67;;;;;;;;;;5092801;28;20032;-70
2023/07/05 11:51:41;;;;;;;15.35;3.40;;;;;;;;;;5084055;28;20386;-67
2023/07/05 11:54:08;;;;;;;8.23;2.72;;;;;;;;;;5092662;28;20467;-71
2023/07/05 11:56:35;;;;;;;8.05;2.85;;;;;;;;;;5091701;28;20031;-69
2023/07/05 11:59:01;;;;;;;11.60;3.38;;;;;;;;;;5091441;28;20028;-68
2023/07/05 12:01:28;;;;;;;11.80;2.65;;;;;;;;;;5092434;28;20035;-64
2023/07/05 12:03:58;;;;;;;10.98;3.03;;;;;;;;;;5091942;28;20055;-67
2023/07/05 12:06:25;;;;;;;8.50;2.78;;;;;;;;;;5092806;28;20365;-66
2023/07/05 12:08:59;;;;;;;12.10;3.45;;;;;;;;;;5092257;28;20055;-68
2023/07/05 12:11:39;;;;;;;11.90;2.38;;;;;;;;;;5091126;28;20024;-67
2023/07/05 12:14:11;;;;;;;10.05;3.33;;;;;;;;;;5091735;28;20193;-68
2023/07/05 12:16:37;;;;;;;10.95;2.53;;;;;;;;;;5091428;28;20463;-66
2023/07/05 12:19:05;;;;;;;7.90;2.63;;;;;;;;;;5091780;28;20039;-66
2023/07/05 12:21:34;;;;;;;7.97;3.17;;;;;;;;;;5092206;28;20024;-66
2023/07/05 12:24:02;;;;;;;6.95;3.33;;;;;;;;;;5086474;28;20131;-67
2023/07/05 12:26:32;;;;;;;8.55;3.08;;;;;;;;;;5091518;28;20032;-67
2023/07/05 12:29:03;;;;;;;10.77;3.55;;;;;;;;;;5091643;28;20027;-64
2023/07/05 12:31:28;;;;;;;9.43;3.72;;;;;;;;;;5091958;28;20109;-66
2023/07/05 12:33:55;;;;;;;10.63;3.97;;;;;;;;;;5091195;28;20082;-66
2023/07/05 12:36:20;;;;;;;13.63;3.85;;;;;;;;;;5091746;28;20530;-66
2023/07/05 12:38:50;;;;;;;6.05;3.47;;;;;;;;;;5089638;28;20113;-66
2023/07/05 12:41:15;;;;;;;5.97;3.10;;;;;;;;;;5081480;28;20098;-67
2023/07/05 12:43:41;;;;;;;8.27;3.80;;;;;;;;;;5091117;28;20115;-67
2023/07/05 12:46:07;;;;;;;9.55;3.20;;;;;;;;;;5091515;28;20054;-67
2023/07/05 12:48:32;;;;;;;9.95;3.85;;;;;;;;;;5091706;28;20469;-66
2023/07/05 12:51:02;;;;;;;8.32;3.83;;;;;;;;;;5091361;28;20095;-66
2023/07/05 12:53:27;;;;;;;12.60;4.20;;;;;;;;;;5090343;28;20036;-66
2023/07/05 12:55:57;;;;;;;6.22;2.70;;;;;;;;;;5091072;28;20035;-66
2023/07/05 12:58:23;;;;;;;8.30;4.07;;;;;;;;;;5083363;28;20031;-67
2023/07/05 13:00:50;;;;;;;14.32;4.15;;;;;;;;;;5091024;28;20523;-65
2023/07/05 13:03:17;;;;;;;7.07;3.40;;;;;;;;;;5090007;28;20024;-69
2023/07/05 13:05:42;;;;;;;7.50;3.65;;;;;;;;;;5090400;28;20521;-67
2023/07/05 13:08:08;;;;;;;7.30;3.60;;;;;;;;;;5089632;28;20057;-68
2023/07/05 13:10:37;;;;;;;4.75;2.72;;;;;;;;;;5090004;28;20016;-66
2023/07/05 13:13:21;;;;;;;10.45;3.33;;;;;;;;;;5089716;28;20808;-66
2023/07/05 13:15:47;;;;;;;8.65;3.25;;;;;;;;;;5090278;28;20020;-66
2023/07/05 13:18:21;;;;;;;7.50;3.08;;;;;;;;;;5088372;28;20523;-70
2023/07/05 13:20:46;;;;;;;;;;;;;;;;;;5088951;28;20038;-67
2023/07/05 13:23:12;;;;;;;5.57;2.47;;;;;;;;;;5090441;28;19912;-67
2023/07/05 13:25:44;;;;;;;4.22;1.80;;;;;;;;;;5087708;28;20759;-67
2023/07/05 13:28:20;;;;;;;6.65;2.45;;;;;;;;;;5088228;28;20502;-67
2023/07/05 13:30:51;;;;;;;3.58;2.08;;;;;;;;;;5090243;28;20038;-67
2023/07/05 13:33:16;;;;;;;5.53;2.05;;;;;;;;;;5087585;28;20071;-68
2023/07/05 13:35:41;;;;;;;6.60;2.53;;;;;;;;;;5089279;28;20055;-70
2023/07/05 13:38:07;;;;;;;5.55;1.60;;;;;;;;;;5086177;28;20293;-70
2023/07/05 13:40:32;;;;;;;5.05;2.20;;;;;;;;;;5089291;28;20031;-67
2023/07/05 13:43:00;;;;;;;10.50;3.15;;;;;;;;;;5088464;28;20066;-68
2023/07/05 13:45:26;;;;;;;13.02;2.97;;;;;;;;;;5089884;28;20115;-67
2023/07/05 13:47:53;;;;;;;7.00;2.58;;;;;;;;;;5089186;28;20480;-67
2023/07/05 13:50:18;;;;;;;5.93;2.55;;;;;;;;;;5089861;28;20028;-67
2023/07/05 13:52:44;;;;;;;7.90;2.00;;;;;;;;;;5089083;28;20355;-67
2023/07/05 13:55:17;;;;;;;3.75;1.98;;;;;;;;;;5089995;28;20115;-67
2023/07/05 13:57:54;;;;;;;5.50;1.95;;;;;;;;;;5089718;28;20592;-65
2023/07/05 14:00:19;;;;;;;9.23;2.45;;;;;;;;;;5090074;28;20039;-66
2023/07/05 14:02:44;;;;;;;8.30;1.90;;;;;;;;;;5086948;28;20028;-66
2023/07/05 14:05:11;;;;;;;6.80;1.97;;;;;;;;;;5089870;28;20047;-66
2023/07/05 14:07:36;;;;;;;7.05;2.42;;;;;;;;;;5090152;28;20316;-64
2023/07/05 14:10:02;;;;;;;6.80;1.85;;;;;;;;;;5090048;28;20048;-67
2023/07/05 14:12:27;;;;;;;6.60;1.95;;;;;;;;;;5083062;28;20024;-66
2023/07/05 14:14:52;;;;;;;3.00;1.33;;;;;;;;;;5093867;28;20020;-67
2023/07/05 14:17:19;;;;;;;4.85;2.10;;;;;;;;;;5093675;28;20374;-67
2023/07/05 14:19:46;;;;;;;3.92;1.92;;;;;;;;;;5093272;28;20032;-67
2023/07/05 14:22:12;;;;;;;4.82;2.05;;;;;;;;;;5093609;28;20027;-65
2023/07/05 14:24:37;;;;;;;10.65;1.98;;;;;;;;;;5093062;28;20038;-66
2023/07/05 14:27:03;;;;;;;3.97;1.63;;;;;;;;;;5084167;28;20037;-66
2023/07/05 14:29:28;;;;;;;4.25;1.98;;;;;;;;;;5092815;28;20274;-66
2023/07/05 14:31:53;;;;;;;6.10;2.28;;;;;;;;;;5093166;28;20108;-66
2023/07/05 14:34:19;;;;;;;4.53;1.97;;;;;;;;;;5092244;28;20040;-66
2023/07/05 14:36:44;;;;;;;7.03;1.87;;;;;;;;;;5091587;28;20274;-66
2023/07/05 14:39:09;;;;;;;5.73;2.00;;;;;;;;;;5092641;28;20282;-68
2023/07/05 14:41:34;;;;;;;6.93;2.07;;;;;;;;;;5091732;28;20317;-67